createdAt,value
2023-05-08T00:00:07.088Z,4.63
2023-05-08T00:03:09.626Z,4.78
2023-05-08T00:06:11.772Z,4.35
2023-05-08T00:09:13.982Z,4.88
2023-05-08T00:12:16.046Z,4.57
2023-05-08T00:15:18.024Z,4.53
2023-05-08T00:18:20.102Z,4.97
2023-05-08T00:21:22.171Z,4.97
2023-05-08T00:24:24.637Z,4.00
2023-05-08T00:27:26.646Z,4.20
2023-05-08T00:30:28.983Z,4.50
2023-05-08T00:33:31.369Z,5.10
2023-05-08T00:36:33.385Z,5.25
2023-05-08T00:39:35.635Z,5.00
2023-05-08T00:42:37.838Z,4.85
2023-05-08T00:45:39.999Z,4.50
2023-05-08T00:48:42.436Z,4.55
2023-05-08T00:51:45.241Z,5.35
2023-05-08T00:54:47.536Z,5.15
2023-05-08T00:57:49.995Z,5.60
2023-05-08T01:00:52.377Z,5.40
2023-05-08T01:03:54.861Z,4.75
2023-05-08T01:06:57.041Z,5.07
2023-05-08T01:09:59.503Z,4.55
2023-05-08T01:13:17.020Z,5.20
2023-05-08T01:16:31.690Z,4.60
2023-05-08T01:19:41.010Z,4.87
2023-05-08T01:23:01.821Z,4.85
2023-05-08T01:26:22.606Z,5.65
2023-05-08T01:29:27.909Z,5.10
2023-05-08T01:32:34.957Z,5.35
2023-05-08T01:35:42.211Z,4.75
2023-05-08T01:38:50.411Z,4.90
2023-05-08T01:42:06.009Z,5.03
2023-05-08T01:45:11.360Z,5.07
2023-05-08T01:48:17.059Z,5.30
2023-05-08T01:51:28.156Z,5.03
2023-05-08T01:54:34.049Z,4.90
2023-05-08T01:57:37.346Z,5.40
2023-05-08T02:00:40.168Z,4.60
2023-05-08T02:03:42.257Z,4.65
2023-05-08T02:06:44.753Z,5.40
2023-05-08T02:09:47.979Z,5.32
2023-05-08T02:12:50.079Z,5.25
2023-05-08T02:15:54.150Z,4.85
2023-05-08T02:18:57.036Z,5.05
2023-05-08T02:21:59.671Z,4.97
2023-05-08T02:25:01.814Z,5.55
2023-05-08T02:28:04.197Z,4.90
2023-05-08T02:31:06.481Z,5.20
2023-05-08T02:34:09.241Z,5.20
2023-05-08T02:37:11.584Z,5.55
2023-05-08T02:40:14.800Z,5.43
2023-05-08T02:43:17.132Z,5.22
2023-05-08T02:46:31.375Z,5.00
2023-05-08T02:49:57.073Z,4.80
2023-05-08T02:53:05.507Z,5.37
2023-05-08T02:56:12.013Z,5.45
2023-05-08T02:59:20.818Z,4.93
2023-05-08T03:02:32.928Z,4.90
2023-05-08T03:05:35.888Z,5.07
2023-05-08T03:08:37.949Z,5.15
2023-05-08T03:11:41.348Z,5.65
2023-05-08T03:15:13.118Z,4.63
2023-05-08T03:18:19.175Z,5.40
2023-05-08T03:21:22.142Z,5.45
2023-05-08T03:24:24.818Z,5.03
2023-05-08T03:27:27.742Z,5.15
2023-05-08T03:30:30.068Z,5.47
2023-05-08T03:33:38.389Z,5.67
2023-05-08T03:36:40.677Z,4.88
2023-05-08T03:39:42.682Z,5.57
2023-05-08T03:42:45.511Z,5.22
2023-05-08T03:45:47.717Z,5.93
2023-05-08T03:48:50.938Z,5.88
2023-05-08T03:51:55.729Z,5.40
2023-05-08T03:54:57.931Z,5.17
2023-05-08T03:58:06.208Z,5.43
2023-05-08T04:01:12.671Z,5.88
2023-05-08T04:04:16.913Z,4.60
2023-05-08T04:07:22.676Z,5.10
2023-05-08T04:10:27.345Z,9.77
2023-05-08T04:13:30.428Z,5.30
2023-05-08T04:16:35.778Z,5.65
2023-05-08T04:19:40.974Z,5.78
2023-05-08T04:22:43.623Z,4.18
2023-05-08T04:25:46.159Z,4.03
2023-05-08T04:28:48.293Z,4.10
2023-05-08T04:31:51.293Z,3.70
2023-05-08T04:34:53.538Z,3.43
2023-05-08T04:37:55.609Z,3.75
2023-05-08T04:40:57.753Z,3.17
2023-05-08T04:44:00.100Z,3.15
2023-05-08T04:47:02.279Z,2.67
2023-05-08T04:50:04.539Z,2.85
2023-05-08T04:53:08.474Z,1.92
2023-05-08T04:56:10.820Z,2.60
2023-05-08T04:59:16.148Z,2.40
2023-05-08T05:02:19.189Z,1.50
2023-05-08T05:05:22.988Z,1.40
2023-05-08T05:08:25.656Z,1.20
2023-05-08T05:11:29.529Z,1.80
2023-05-08T05:14:31.629Z,1.15
2023-05-08T05:17:35.125Z,1.40
2023-05-08T05:20:38.292Z,1.02
2023-05-08T05:23:41.488Z,1.50
2023-05-08T05:26:43.805Z,1.53
2023-05-08T05:29:50.691Z,1.58
2023-05-08T05:32:59.287Z,1.60
2023-05-08T05:36:01.718Z,1.50
2023-05-08T05:39:05.024Z,1.48
2023-05-08T05:42:09.018Z,1.42
2023-05-08T05:45:11.400Z,1.40
2023-05-08T05:48:14.683Z,1.40
2023-05-08T05:51:17.161Z,1.08
2023-05-08T05:54:19.296Z,1.25
2023-05-08T05:57:21.939Z,1.48
2023-05-08T06:00:25.608Z,1.27
2023-05-08T06:03:31.312Z,1.48
2023-05-08T06:06:33.954Z,1.00
2023-05-08T06:09:36.598Z,1.27
2023-05-08T06:12:38.737Z,1.38
2023-05-08T06:15:41.536Z,1.50
2023-05-08T06:18:46.276Z,1.00
2023-05-08T06:21:48.820Z,1.27
2023-05-08T06:24:53.531Z,1.35
2023-05-08T06:27:55.793Z,1.15
2023-05-08T06:30:57.950Z,1.85
2023-05-08T06:34:00.681Z,1.10
2023-05-08T06:37:02.973Z,1.10
2023-05-08T06:40:15.572Z,0.90
2023-05-08T06:43:37.938Z,1.00
2023-05-08T06:46:40.595Z,1.47
2023-05-08T06:49:43.709Z,1.20
2023-05-08T06:52:46.150Z,1.50
2023-05-08T06:55:48.159Z,1.33
2023-05-08T06:59:00.939Z,1.55
2023-05-08T07:02:07.134Z,1.43
2023-05-08T07:05:15.755Z,1.53
2023-05-08T07:08:18.341Z,1.63
2023-05-08T07:11:22.045Z,1.63
2023-05-08T07:14:24.711Z,2.08
2023-05-08T07:17:26.931Z,1.47
2023-05-08T07:20:52.146Z,1.57
2023-05-08T07:23:56.378Z,1.90
2023-05-08T07:26:59.783Z,1.95
2023-05-08T07:30:04.432Z,2.38
2023-05-08T07:33:06.782Z,1.90
2023-05-08T07:36:08.841Z,1.87
2023-05-08T07:39:11.329Z,1.60
2023-05-08T07:42:14.137Z,1.63
2023-05-08T07:45:16.822Z,1.45
2023-05-08T07:48:20.105Z,1.60
2023-05-08T07:51:22.727Z,1.60
2023-05-08T07:54:24.793Z,1.35
2023-05-08T07:57:26.971Z,1.42
2023-05-08T08:00:29.941Z,1.90
2023-05-08T08:03:32.260Z,1.63
2023-05-08T08:06:34.502Z,1.77
2023-05-08T08:09:36.564Z,1.70
2023-05-08T08:12:39.202Z,1.30
2023-05-08T08:15:42.037Z,1.45
2023-05-08T08:18:44.412Z,1.70
2023-05-08T08:21:46.896Z,1.43
2023-05-08T08:24:48.973Z,1.50
2023-05-08T08:27:51.050Z,1.17
2023-05-08T08:30:58.179Z,1.30
2023-05-08T08:34:06.901Z,1.60
2023-05-08T08:37:09.432Z,1.83
2023-05-08T08:40:11.544Z,1.10
2023-05-08T08:43:14.079Z,1.33
2023-05-08T08:46:16.483Z,0.80
2023-05-08T08:49:19.688Z,1.00
2023-05-08T08:52:32.107Z,0.80
2023-05-08T08:55:34.594Z,2.05
2023-05-08T08:58:38.643Z,1.00
2023-05-08T09:01:42.066Z,0.80
2023-05-08T09:04:44.697Z,0.80
2023-05-08T09:07:48.770Z,0.80
2023-05-08T09:10:52.581Z,1.05
2023-05-08T09:13:55.034Z,0.90
2023-05-08T09:16:57.128Z,0.60
2023-05-08T09:19:59.258Z,1.40
2023-05-08T09:23:02.675Z,0.50
2023-05-08T09:26:05.050Z,0.60
2023-05-08T09:29:11.011Z,0.47
2023-05-08T09:32:13.169Z,0.70
2023-05-08T09:35:15.716Z,0.60
2023-05-08T09:38:30.777Z,0.60
2023-05-08T09:41:32.845Z,0.45
2023-05-08T09:44:45.511Z,0.40
2023-05-08T09:47:50.828Z,0.57
2023-05-08T09:51:03.611Z,0.50
2023-05-08T09:54:07.556Z,0.60
2023-05-08T09:57:13.687Z,0.45
2023-05-08T10:00:16.426Z,0.40
2023-05-08T10:03:18.718Z,0.60
2023-05-08T10:06:20.849Z,0.60
2023-05-08T10:09:22.943Z,0.60
2023-05-08T10:12:25.390Z,0.70
2023-05-08T10:15:31.523Z,1.05
2023-05-08T10:18:33.941Z,0.63
2023-05-08T10:21:37.735Z,0.57
2023-05-08T10:24:39.904Z,0.57
2023-05-08T10:27:51.100Z,0.90
2023-05-08T10:30:53.241Z,0.40
2023-05-08T10:33:56.704Z,0.63
2023-05-08T10:36:59.208Z,0.60
2023-05-08T10:40:01.318Z,0.80
2023-05-08T10:43:03.577Z,0.50
2023-05-08T10:46:08.505Z,1.38
2023-05-08T10:49:19.369Z,0.70
2023-05-08T10:52:24.308Z,0.60
2023-05-08T10:55:36.869Z,0.70
2023-05-08T10:58:40.462Z,0.70
2023-05-08T11:01:43.818Z,0.60
2023-05-08T11:04:46.075Z,0.80
2023-05-08T11:07:54.585Z,0.80
2023-05-08T11:10:59.804Z,0.87
2023-05-08T11:14:02.406Z,0.70
2023-05-08T11:17:05.149Z,0.95
2023-05-08T11:20:07.705Z,0.82
2023-05-08T11:23:22.850Z,1.00
2023-05-08T11:26:49.691Z,1.20
2023-05-08T11:30:24.239Z,0.90
2023-05-08T11:33:32.927Z,1.00
2023-05-08T11:36:35.610Z,1.20
2023-05-08T11:39:39.529Z,0.83
2023-05-08T11:42:41.722Z,1.00
2023-05-08T11:45:43.778Z,0.90
2023-05-08T11:48:46.431Z,10.02
2023-05-08T11:51:55.271Z,0.60
2023-05-08T11:54:57.737Z,0.60
2023-05-08T11:57:59.764Z,1.10
2023-05-08T12:01:02.136Z,0.75
2023-05-08T12:04:08.249Z,0.70
2023-05-08T12:07:10.542Z,0.70
2023-05-08T12:10:13.542Z,0.90
2023-05-08T12:13:22.706Z,0.90
2023-05-08T12:16:26.010Z,0.80
2023-05-08T12:19:28.521Z,0.73
2023-05-08T12:22:30.673Z,0.80
2023-05-08T12:25:32.756Z,0.60
2023-05-08T12:28:35.071Z,0.50
2023-05-08T12:31:37.606Z,0.50
2023-05-08T12:34:39.843Z,0.65
2023-05-08T12:37:41.963Z,1.90
2023-05-08T12:40:45.063Z,0.83
2023-05-08T12:43:47.861Z,0.60
2023-05-08T12:46:51.363Z,0.68
2023-05-08T12:49:57.413Z,0.93
2023-05-08T12:53:05.174Z,0.60
2023-05-08T12:56:07.960Z,0.73
2023-05-08T12:59:10.645Z,1.00
2023-05-08T13:02:16.929Z,0.80
2023-05-08T13:05:22.538Z,0.50
2023-05-08T13:08:32.489Z,0.98
2023-05-08T13:11:34.840Z,0.90
2023-05-08T13:14:37.555Z,0.70
2023-05-08T13:17:39.998Z,0.70
2023-05-08T13:20:42.149Z,0.60
2023-05-08T13:23:44.455Z,1.58
2023-05-08T13:26:47.021Z,0.83
2023-05-08T13:29:49.714Z,0.80
2023-05-08T13:32:52.081Z,4.18
2023-05-08T13:35:54.338Z,1.30
2023-05-08T13:38:57.530Z,0.77
2023-05-08T13:42:00.279Z,0.80
2023-05-08T13:45:04.362Z,7.93
2023-05-08T13:48:06.665Z,1.30
2023-05-08T13:51:09.070Z,0.75
2023-05-08T13:54:11.027Z,0.73
2023-05-08T13:57:13.428Z,0.70
2023-05-08T14:00:15.821Z,0.90
2023-05-08T14:03:19.394Z,1.33
2023-05-08T14:06:21.722Z,0.80
2023-05-08T14:09:23.781Z,0.70
2023-05-08T14:12:26.301Z,0.70
2023-05-08T14:15:36.492Z,0.70
2023-05-08T14:18:43.033Z,1.35
2023-05-08T14:21:45.507Z,1.20
2023-05-08T14:24:47.516Z,1.08
2023-05-08T14:27:49.993Z,1.03
2023-05-08T14:30:52.472Z,0.80
2023-05-08T14:33:54.580Z,1.00
2023-05-08T14:36:56.710Z,0.88
2023-05-08T14:39:59.537Z,0.90
2023-05-08T14:43:02.294Z,1.10
2023-05-08T14:46:04.858Z,1.23
2023-05-08T14:49:07.073Z,1.67
2023-05-08T14:52:09.084Z,1.00
2023-05-08T14:55:11.540Z,1.08
2023-05-08T14:58:14.003Z,0.83
2023-05-08T15:01:16.115Z,1.13
2023-05-08T15:04:18.632Z,0.90
2023-05-08T15:07:20.767Z,0.90
2023-05-08T15:10:23.020Z,0.95
2023-05-08T15:13:25.368Z,1.00
2023-05-08T15:16:28.082Z,1.20
2023-05-08T15:19:30.976Z,1.27
2023-05-08T15:22:33.352Z,1.73
2023-05-08T15:25:36.201Z,0.98
2023-05-08T15:28:41.632Z,1.50
2023-05-08T15:31:44.071Z,1.43
2023-05-08T15:34:46.145Z,0.95
2023-05-08T15:37:48.328Z,0.93
2023-05-08T15:41:05.021Z,1.20
2023-05-08T15:44:20.814Z,1.17
2023-05-08T15:47:23.876Z,1.10
2023-05-08T15:50:26.219Z,1.60
2023-05-08T15:53:28.499Z,1.20
2023-05-08T15:56:30.570Z,1.30
2023-05-08T15:59:32.677Z,1.30
2023-05-08T16:02:35.463Z,1.33
2023-05-08T16:05:38.250Z,1.25
2023-05-08T16:08:41.402Z,1.40
2023-05-08T16:11:43.797Z,1.33
2023-05-08T16:14:45.846Z,1.43
2023-05-08T16:17:48.426Z,1.60
2023-05-08T16:20:50.908Z,1.60
2023-05-08T16:23:53.397Z,1.10
2023-05-08T16:26:55.501Z,2.65
2023-05-08T16:29:57.682Z,1.60
2023-05-08T16:32:59.785Z,1.50
2023-05-08T16:36:02.319Z,1.50
2023-05-08T16:39:04.412Z,1.80
2023-05-08T16:42:07.588Z,1.50
2023-05-08T16:45:10.613Z,1.60
2023-05-08T16:48:12.611Z,1.70
2023-05-08T16:51:15.070Z,1.50
2023-05-08T16:54:17.122Z,1.42
2023-05-08T16:57:19.108Z,1.65
2023-05-08T17:00:21.401Z,1.50
2023-05-08T17:03:24.073Z,1.30
2023-05-08T17:06:26.462Z,1.90
2023-05-08T17:09:28.979Z,2.35
2023-05-08T17:12:31.024Z,2.22
2023-05-08T17:15:33.254Z,1.90
2023-05-08T17:18:35.829Z,1.90
2023-05-08T17:21:39.690Z,1.90
2023-05-08T17:24:42.191Z,1.90
2023-05-08T17:27:44.448Z,1.50
2023-05-08T17:30:48.217Z,1.80
2023-05-08T17:33:50.637Z,1.90
2023-05-08T17:36:54.989Z,2.08
2023-05-08T17:39:57.790Z,2.53
2023-05-08T17:43:00.372Z,2.25
2023-05-08T17:46:02.437Z,2.20
2023-05-08T17:49:04.863Z,2.10
2023-05-08T17:52:15.518Z,2.30
2023-05-08T17:55:20.281Z,2.13
2023-05-08T17:58:22.326Z,1.70
2023-05-08T18:01:25.597Z,2.17
2023-05-08T18:04:27.781Z,2.50
2023-05-08T18:07:29.919Z,2.30
2023-05-08T18:10:32.435Z,2.35
2023-05-08T18:13:34.877Z,2.47
2023-05-08T18:16:37.347Z,2.10
2023-05-08T18:19:39.342Z,3.00
2023-05-08T18:22:41.349Z,2.15
2023-05-08T18:25:43.936Z,2.67
2023-05-08T18:28:46.403Z,2.70
2023-05-08T18:31:48.489Z,2.50
2023-05-08T18:34:50.535Z,2.83
2023-05-08T18:37:52.852Z,2.42
2023-05-08T18:40:54.953Z,3.13
2023-05-08T18:43:57.218Z,2.53
2023-05-08T18:46:59.244Z,2.75
2023-05-08T18:50:01.241Z,2.58
2023-05-08T18:53:03.414Z,3.30
2023-05-08T18:56:05.526Z,3.60
2023-05-08T18:59:08.760Z,2.83
2023-05-08T19:02:10.889Z,2.85
2023-05-08T19:05:13.574Z,3.08
2023-05-08T19:08:15.999Z,2.67
2023-05-08T19:11:18.682Z,2.73
2023-05-08T19:14:21.248Z,2.30
2023-05-08T19:17:23.304Z,2.80
2023-05-08T19:20:26.082Z,2.22
2023-05-08T19:23:28.517Z,2.37
2023-05-08T19:26:30.607Z,2.40
2023-05-08T19:29:34.186Z,2.40
2023-05-08T19:32:38.030Z,2.28
2023-05-08T19:35:40.013Z,2.27
2023-05-08T19:38:42.373Z,2.35
2023-05-08T19:41:44.869Z,2.25
2023-05-08T19:44:47.111Z,2.08
2023-05-08T19:47:49.466Z,2.63
2023-05-08T19:50:54.596Z,3.03
2023-05-08T19:53:57.537Z,2.17
2023-05-08T19:56:59.505Z,2.35
2023-05-08T20:00:01.599Z,2.27
2023-05-08T20:03:06.316Z,2.13
2023-05-08T20:06:08.339Z,2.05
2023-05-08T20:09:10.742Z,2.30
2023-05-08T20:12:13.373Z,2.27
2023-05-08T20:15:15.563Z,2.27
2023-05-08T20:18:17.955Z,2.65
2023-05-08T20:21:20.343Z,3.22
2023-05-08T20:24:22.922Z,3.00
2023-05-08T20:27:25.310Z,2.60
2023-05-08T20:30:28.016Z,2.40
2023-05-08T20:33:29.987Z,2.28
2023-05-08T20:36:32.201Z,2.35
2023-05-08T20:39:34.591Z,2.20
2023-05-08T20:42:36.738Z,2.15
2023-05-08T20:45:38.918Z,2.40
2023-05-08T20:48:41.094Z,2.80
2023-05-08T20:51:43.249Z,3.10
2023-05-08T20:54:47.255Z,3.03
2023-05-08T20:57:49.352Z,2.70
2023-05-08T21:00:51.279Z,2.30
2023-05-08T21:03:53.754Z,2.17
2023-05-08T21:06:56.095Z,2.50
2023-05-08T21:10:00.080Z,3.13
2023-05-08T21:13:02.296Z,2.80
2023-05-08T21:16:05.764Z,3.00
2023-05-08T21:19:09.850Z,2.72
2023-05-08T21:22:13.908Z,2.72
2023-05-08T21:25:16.660Z,2.80
2023-05-08T21:28:19.055Z,2.95
2023-05-08T21:31:21.794Z,2.35
2023-05-08T21:34:23.868Z,3.30
2023-05-08T21:37:25.981Z,3.10
2023-05-08T21:40:28.458Z,3.60
2023-05-08T21:43:30.922Z,3.10
2023-05-08T21:46:32.936Z,3.05
2023-05-08T21:49:35.066Z,3.10
2023-05-08T21:52:37.521Z,2.95
2023-05-08T21:55:39.819Z,2.88
2023-05-08T21:58:41.809Z,2.80
2023-05-08T22:01:44.311Z,2.97
2023-05-08T22:04:46.777Z,2.42
2023-05-08T22:07:48.854Z,2.65
2023-05-08T22:10:51.290Z,3.07
2023-05-08T22:13:53.293Z,3.05
2023-05-08T22:16:55.380Z,3.00
2023-05-08T22:19:57.835Z,2.90
2023-05-08T22:22:59.822Z,2.72
2023-05-08T22:26:03.093Z,3.03
2023-05-08T22:29:05.727Z,3.03
2023-05-08T22:32:08.461Z,3.23
2023-05-08T22:35:11.134Z,3.05
2023-05-08T22:38:13.696Z,3.30
2023-05-08T22:41:15.816Z,3.00
2023-05-08T22:44:17.807Z,3.20
2023-05-08T22:47:19.844Z,2.60
2023-05-08T22:50:22.018Z,2.83
2023-05-08T22:53:24.444Z,2.70
2023-05-08T22:56:26.409Z,3.05
2023-05-08T22:59:28.831Z,2.83
2023-05-08T23:02:31.454Z,2.95
2023-05-08T23:05:33.513Z,3.08
2023-05-08T23:08:35.845Z,3.20
2023-05-08T23:11:37.956Z,2.90
2023-05-08T23:14:40.507Z,2.90
2023-05-08T23:17:43.005Z,3.10
2023-05-08T23:20:45.509Z,3.00
2023-05-08T23:23:48.205Z,2.87
2023-05-08T23:26:52.447Z,3.13
2023-05-08T23:29:54.486Z,2.58
2023-05-08T23:32:56.875Z,2.85
2023-05-08T23:35:59.041Z,2.67
2023-05-08T23:39:00.982Z,2.95
2023-05-08T23:42:03.485Z,3.28
2023-05-08T23:45:06.381Z,3.10
2023-05-08T23:48:08.439Z,2.67
2023-05-08T23:51:10.906Z,2.88
2023-05-08T23:54:12.933Z,3.40
2023-05-08T23:57:14.965Z,3.28
